Terminal Aerodrome Forecast
Issued by NWS Grand Forks, ND

Home | Current Version | Previous Version | Graphics & Text | Print | Product List | Glossary On
Versions: 1 2 3 4 5 6 7 8 9 10 11 12 13 14 15 16
000
FTUS43 KFGF 240641 AAA
TAFGFK
TAF AMD
KGFK 240641Z 2407/2506 15010KT P6SM BKN150
     FM241400 18011KT P6SM SCT060 BKN200
     FM250200 21009KT P6SM FEW060 SCT250=

USA.gov is the U.S. government's official web portal to all federal, state and local government web resources and services.